sensor_id;sensor_type;location;lat;lon;timestamp;temperature;humidity
3752;DHT22;50827;47.014;7.652;2022-10-17T00:00:08;13.70;99.90
3752;DHT22;50827;47.014;7.652;2022-10-17T00:02:55;13.60;99.90
3752;DHT22;50827;47.014;7.652;2022-10-17T00:05:44;13.70;99.90
3752;DHT22;50827;47.014;7.652;2022-10-17T00:08:31;13.60;99.90
3752;DHT22;50827;47.014;7.652;2022-10-17T00:11:22;13.60;99.90
3752;DHT22;50827;47.014;7.652;2022-10-17T00:14:09;13.60;99.90
3752;DHT22;50827;47.014;7.652;2022-10-17T00:16:56;13.60;99.90
3752;DHT22;50827;47.014;7.652;2022-10-17T00:19:44;13.70;99.90
3752;DHT22;50827;47.014;7.652;2022-10-17T00:22:31;13.70;99.90
3752;DHT22;50827;47.014;7.652;2022-10-17T00:25:19;13.60;99.90
3752;DHT22;50827;47.014;7.652;2022-10-17T00:28:08;13.70;99.90
3752;DHT22;50827;47.014;7.652;2022-10-17T00:31:01;13.60;99.90
3752;DHT22;50827;47.014;7.652;2022-10-17T00:33:48;13.60;99.90
3752;DHT22;50827;47.014;7.652;2022-10-17T00:36:35;13.50;99.90
3752;DHT22;50827;47.014;7.652;2022-10-17T00:39:25;13.50;99.90
3752;DHT22;50827;47.014;7.652;2022-10-17T00:42:12;13.40;99.90
3752;DHT22;50827;47.014;7.652;2022-10-17T00:47:59;13.50;99.90
3752;DHT22;50827;47.014;7.652;2022-10-17T00:50:47;13.60;99.90
3752;DHT22;50827;47.014;7.652;2022-10-17T00:53:37;13.50;99.90
3752;DHT22;50827;47.014;7.652;2022-10-17T00:56:25;13.50;99.90
3752;DHT22;50827;47.014;7.652;2022-10-17T00:59:13;13.60;99.90
3752;DHT22;50827;47.014;7.652;2022-10-17T01:02:03;13.50;99.90
3752;DHT22;50827;47.014;7.652;2022-10-17T01:04:52;13.40;99.90
3752;DHT22;50827;47.014;7.652;2022-10-17T01:07:42;13.40;99.90
3752;DHT22;50827;47.014;7.652;2022-10-17T01:10:38;13.30;99.90
3752;DHT22;50827;47.014;7.652;2022-10-17T01:13:45;13.40;99.90
3752;DHT22;50827;47.014;7.652;2022-10-17T01:23:00;13.20;99.90
3752;DHT22;50827;47.014;7.652;2022-10-17T01:32:54;13.20;99.90
3752;DHT22;50827;47.014;7.652;2022-10-17T01:38:53;13.00;99.90
3752;DHT22;50827;47.014;7.652;2022-10-17T01:45:00;13.10;99.90
3752;DHT22;50827;47.014;7.652;2022-10-17T01:47:50;13.20;99.90
3752;DHT22;50827;47.014;7.652;2022-10-17T01:50:42;13.10;99.90
3752;DHT22;50827;47.014;7.652;2022-10-17T01:53:40;13.10;99.90
3752;DHT22;50827;47.014;7.652;2022-10-17T01:56:31;13.10;99.90
3752;DHT22;50827;47.014;7.652;2022-10-17T01:59:21;13.00;99.90
3752;DHT22;50827;47.014;7.652;2022-10-17T02:02:11;13.00;99.90
3752;DHT22;50827;47.014;7.652;2022-10-17T02:05:02;13.00;99.90
3752;DHT22;50827;47.014;7.652;2022-10-17T02:07:49;12.90;99.90
3752;DHT22;50827;47.014;7.652;2022-10-17T02:10:59;12.90;99.90
3752;DHT22;50827;47.014;7.652;2022-10-17T02:14:00;12.80;99.90
3752;DHT22;50827;47.014;7.652;2022-10-17T02:20:18;12.80;99.90
3752;DHT22;50827;47.014;7.652;2022-10-17T02:29:25;12.80;99.90
3752;DHT22;50827;47.014;7.652;2022-10-17T02:32:23;12.80;99.90
3752;DHT22;50827;47.014;7.652;2022-10-17T02:35:13;12.80;99.90
3752;DHT22;50827;47.014;7.652;2022-10-17T02:38:02;12.90;99.90
3752;DHT22;50827;47.014;7.652;2022-10-17T02:40:52;12.80;99.90
3752;DHT22;50827;47.014;7.652;2022-10-17T02:43:39;12.80;99.90
3752;DHT22;50827;47.014;7.652;2022-10-17T02:46:32;12.80;99.90
3752;DHT22;50827;47.014;7.652;2022-10-17T02:49:23;12.70;99.90
3752;DHT22;50827;47.014;7.652;2022-10-17T02:55:30;12.70;99.90
3752;DHT22;50827;47.014;7.652;2022-10-17T02:58:20;12.70;99.90
3752;DHT22;50827;47.014;7.652;2022-10-17T03:01:09;12.70;99.90
3752;DHT22;50827;47.014;7.652;2022-10-17T03:04:13;12.60;99.90
3752;DHT22;50827;47.014;7.652;2022-10-17T03:07:00;12.60;99.90
3752;DHT22;50827;47.014;7.652;2022-10-17T03:09:47;12.60;99.90
3752;DHT22;50827;47.014;7.652;2022-10-17T03:12:34;12.50;99.90
3752;DHT22;50827;47.014;7.652;2022-10-17T03:15:21;12.40;99.90
3752;DHT22;50827;47.014;7.652;2022-10-17T03:18:08;12.40;99.90
3752;DHT22;50827;47.014;7.652;2022-10-17T03:20:55;12.40;99.90
3752;DHT22;50827;47.014;7.652;2022-10-17T03:23:42;12.40;99.90
3752;DHT22;50827;47.014;7.652;2022-10-17T03:26:29;12.40;99.90
3752;DHT22;50827;47.014;7.652;2022-10-17T03:29:16;12.40;99.90
3752;DHT22;50827;47.014;7.652;2022-10-17T03:32:03;12.40;99.90
3752;DHT22;50827;47.014;7.652;2022-10-17T03:34:50;12.40;99.90
3752;DHT22;50827;47.014;7.652;2022-10-17T03:37:40;12.50;99.90
3752;DHT22;50827;47.014;7.652;2022-10-17T03:40:26;12.40;99.90
3752;DHT22;50827;47.014;7.652;2022-10-17T03:43:13;12.40;99.90
3752;DHT22;50827;47.014;7.652;2022-10-17T03:46:01;12.30;99.90
3752;DHT22;50827;47.014;7.652;2022-10-17T03:48:48;12.30;99.90
3752;DHT22;50827;47.014;7.652;2022-10-17T03:51:35;12.30;99.90
3752;DHT22;50827;47.014;7.652;2022-10-17T03:54:24;12.30;99.90
3752;DHT22;50827;47.014;7.652;2022-10-17T03:57:12;12.30;99.90
3752;DHT22;50827;47.014;7.652;2022-10-17T03:59:58;12.20;99.90
3752;DHT22;50827;47.014;7.652;2022-10-17T04:02:45;12.20;99.90
3752;DHT22;50827;47.014;7.652;2022-10-17T04:05:32;12.20;99.90
3752;DHT22;50827;47.014;7.652;2022-10-17T04:08:19;12.20;99.90
3752;DHT22;50827;47.014;7.652;2022-10-17T04:11:07;12.20;99.90
3752;DHT22;50827;47.014;7.652;2022-10-17T04:13:56;12.20;99.90
3752;DHT22;50827;47.014;7.652;2022-10-17T04:16:43;12.20;99.90
3752;DHT22;50827;47.014;7.652;2022-10-17T04:19:48;12.10;99.90
3752;DHT22;50827;47.014;7.652;2022-10-17T04:22:56;12.20;99.90
3752;DHT22;50827;47.014;7.652;2022-10-17T04:25:54;12.10;99.90
3752;DHT22;50827;47.014;7.652;2022-10-17T04:28:49;12.20;99.90
3752;DHT22;50827;47.014;7.652;2022-10-17T04:31:40;12.10;99.90
3752;DHT22;50827;47.014;7.652;2022-10-17T04:34:30;12.00;99.90
3752;DHT22;50827;47.014;7.652;2022-10-17T04:37:19;12.10;99.90
3752;DHT22;50827;47.014;7.652;2022-10-17T04:40:06;12.00;99.90
3752;DHT22;50827;47.014;7.652;2022-10-17T04:43:00;12.00;99.90
3752;DHT22;50827;47.014;7.652;2022-10-17T04:45:51;12.00;99.90
3752;DHT22;50827;47.014;7.652;2022-10-17T04:48:41;12.00;99.90
3752;DHT22;50827;47.014;7.652;2022-10-17T04:51:28;12.00;99.90
3752;DHT22;50827;47.014;7.652;2022-10-17T04:54:19;12.10;99.90
3752;DHT22;50827;47.014;7.652;2022-10-17T04:57:06;12.00;99.90
3752;DHT22;50827;47.014;7.652;2022-10-17T04:59:56;12.00;99.90
3752;DHT22;50827;47.014;7.652;2022-10-17T05:02:46;12.00;99.90
3752;DHT22;50827;47.014;7.652;2022-10-17T05:05:39;11.90;99.90
3752;DHT22;50827;47.014;7.652;2022-10-17T05:08:31;11.90;99.90
3752;DHT22;50827;47.014;7.652;2022-10-17T05:11:26;11.90;99.90
3752;DHT22;50827;47.014;7.652;2022-10-17T05:14:21;12.00;99.90
3752;DHT22;50827;47.014;7.652;2022-10-17T05:20:49;11.90;99.90
3752;DHT22;50827;47.014;7.652;2022-10-17T05:23:51;11.70;99.90
3752;DHT22;50827;47.014;7.652;2022-10-17T05:26:44;11.70;99.90
3752;DHT22;50827;47.014;7.652;2022-10-17T05:29:36;11.80;99.90
3752;DHT22;50827;47.014;7.652;2022-10-17T05:32:26;11.80;99.90
3752;DHT22;50827;47.014;7.652;2022-10-17T05:35:35;11.80;99.90
3752;DHT22;50827;47.014;7.652;2022-10-17T05:38:55;11.80;99.90
3752;DHT22;50827;47.014;7.652;2022-10-17T05:41:47;11.80;99.90
3752;DHT22;50827;47.014;7.652;2022-10-17T05:45:00;11.80;99.90
3752;DHT22;50827;47.014;7.652;2022-10-17T05:48:03;11.80;99.90
3752;DHT22;50827;47.014;7.652;2022-10-17T05:51:02;11.80;99.90
3752;DHT22;50827;47.014;7.652;2022-10-17T05:54:09;11.80;99.90
3752;DHT22;50827;47.014;7.652;2022-10-17T05:56:56;11.80;99.90
3752;DHT22;50827;47.014;7.652;2022-10-17T05:59:43;11.70;99.90
3752;DHT22;50827;47.014;7.652;2022-10-17T06:02:30;11.70;99.90
3752;DHT22;50827;47.014;7.652;2022-10-17T06:05:18;11.70;99.90
3752;DHT22;50827;47.014;7.652;2022-10-17T06:08:05;11.70;99.90
3752;DHT22;50827;47.014;7.652;2022-10-17T06:10:52;11.80;99.90
3752;DHT22;50827;47.014;7.652;2022-10-17T06:13:39;11.80;99.90
3752;DHT22;50827;47.014;7.652;2022-10-17T06:16:26;11.70;99.90
3752;DHT22;50827;47.014;7.652;2022-10-17T06:19:13;11.70;99.90
3752;DHT22;50827;47.014;7.652;2022-10-17T06:22:00;11.70;99.90
3752;DHT22;50827;47.014;7.652;2022-10-17T06:24:47;11.70;99.90
3752;DHT22;50827;47.014;7.652;2022-10-17T06:27:37;11.80;99.90
3752;DHT22;50827;47.014;7.652;2022-10-17T06:30:24;11.80;99.90
3752;DHT22;50827;47.014;7.652;2022-10-17T06:33:11;11.90;99.90
3752;DHT22;50827;47.014;7.652;2022-10-17T06:35:59;11.90;99.90
3752;DHT22;50827;47.014;7.652;2022-10-17T06:38:46;11.90;99.90
3752;DHT22;50827;47.014;7.652;2022-10-17T06:41:33;12.00;99.90
3752;DHT22;50827;47.014;7.652;2022-10-17T06:44:20;12.00;99.90
3752;DHT22;50827;47.014;7.652;2022-10-17T06:47:08;12.00;99.90
3752;DHT22;50827;47.014;7.652;2022-10-17T06:49:55;12.10;99.90
3752;DHT22;50827;47.014;7.652;2022-10-17T06:52:43;12.10;99.90
3752;DHT22;50827;47.014;7.652;2022-10-17T06:55:31;12.10;99.90
3752;DHT22;50827;47.014;7.652;2022-10-17T06:58:21;12.20;99.90
3752;DHT22;50827;47.014;7.652;2022-10-17T07:01:10;12.30;99.90
3752;DHT22;50827;47.014;7.652;2022-10-17T07:03:58;12.30;99.90
3752;DHT22;50827;47.014;7.652;2022-10-17T07:06:45;12.30;99.90
3752;DHT22;50827;47.014;7.652;2022-10-17T07:09:32;12.40;99.90
3752;DHT22;50827;47.014;7.652;2022-10-17T07:12:19;12.40;99.90
3752;DHT22;50827;47.014;7.652;2022-10-17T07:15:07;12.50;99.90
3752;DHT22;50827;47.014;7.652;2022-10-17T07:17:54;12.50;99.90
3752;DHT22;50827;47.014;7.652;2022-10-17T07:20:43;12.50;99.90
3752;DHT22;50827;47.014;7.652;2022-10-17T07:23:37;12.50;99.90
3752;DHT22;50827;47.014;7.652;2022-10-17T07:26:25;12.60;99.90
3752;DHT22;50827;47.014;7.652;2022-10-17T07:29:12;12.60;99.90
3752;DHT22;50827;47.014;7.652;2022-10-17T07:31:59;12.70;99.90
3752;DHT22;50827;47.014;7.652;2022-10-17T07:34:46;12.70;99.90
3752;DHT22;50827;47.014;7.652;2022-10-17T07:37:33;12.80;99.90
3752;DHT22;50827;47.014;7.652;2022-10-17T07:40:21;12.80;99.90
3752;DHT22;50827;47.014;7.652;2022-10-17T07:43:08;12.90;99.90
3752;DHT22;50827;47.014;7.652;2022-10-17T07:45:55;12.90;99.90
3752;DHT22;50827;47.014;7.652;2022-10-17T07:48:42;12.90;99.90
3752;DHT22;50827;47.014;7.652;2022-10-17T07:51:29;13.00;99.90
3752;DHT22;50827;47.014;7.652;2022-10-17T07:54:16;13.30;99.90
3752;DHT22;50827;47.014;7.652;2022-10-17T07:59:25;13.30;99.90
3752;DHT22;50827;47.014;7.652;2022-10-17T08:01:54;13.40;99.90
3752;DHT22;50827;47.014;7.652;2022-10-17T08:04:21;13.40;99.90
3752;DHT22;50827;47.014;7.652;2022-10-17T08:06:49;13.50;99.90
3752;DHT22;50827;47.014;7.652;2022-10-17T08:09:21;13.60;99.90
3752;DHT22;50827;47.014;7.652;2022-10-17T08:11:48;13.60;99.90
3752;DHT22;50827;47.014;7.652;2022-10-17T08:14:15;13.60;99.90
3752;DHT22;50827;47.014;7.652;2022-10-17T08:16:42;13.70;99.90
3752;DHT22;50827;47.014;7.652;2022-10-17T08:19:09;13.70;99.90
3752;DHT22;50827;47.014;7.652;2022-10-17T08:21:37;13.80;99.90
3752;DHT22;50827;47.014;7.652;2022-10-17T08:24:04;13.80;99.90
3752;DHT22;50827;47.014;7.652;2022-10-17T08:26:30;13.90;99.90
3752;DHT22;50827;47.014;7.652;2022-10-17T08:28:57;13.90;99.90
3752;DHT22;50827;47.014;7.652;2022-10-17T08:31:24;14.00;99.90
3752;DHT22;50827;47.014;7.652;2022-10-17T08:33:50;14.00;99.90
3752;DHT22;50827;47.014;7.652;2022-10-17T08:36:18;14.10;99.90
3752;DHT22;50827;47.014;7.652;2022-10-17T08:38:45;14.10;99.90
3752;DHT22;50827;47.014;7.652;2022-10-17T08:41:50;14.10;99.90
3752;DHT22;50827;47.014;7.652;2022-10-17T08:47:02;14.20;99.90
3752;DHT22;50827;47.014;7.652;2022-10-17T08:49:41;14.30;99.90
3752;DHT22;50827;47.014;7.652;2022-10-17T08:52:32;14.30;99.90
3752;DHT22;50827;47.014;7.652;2022-10-17T08:55:01;14.40;99.90
3752;DHT22;50827;47.014;7.652;2022-10-17T08:57:30;14.40;99.90
3752;DHT22;50827;47.014;7.652;2022-10-17T08:59:57;14.50;99.90
3752;DHT22;50827;47.014;7.652;2022-10-17T09:05:45;14.60;99.90
3752;DHT22;50827;47.014;7.652;2022-10-17T09:10:57;14.60;99.90
3752;DHT22;50827;47.014;7.652;2022-10-17T09:19:24;14.80;99.90
3752;DHT22;50827;47.014;7.652;2022-10-17T09:21:58;14.90;99.90
3752;DHT22;50827;47.014;7.652;2022-10-17T09:24:50;14.90;99.90
3752;DHT22;50827;47.014;7.652;2022-10-17T09:27:42;15.00;99.90
3752;DHT22;50827;47.014;7.652;2022-10-17T09:33:16;15.20;99.90
3752;DHT22;50827;47.014;7.652;2022-10-17T09:36:07;15.20;99.90
3752;DHT22;50827;47.014;7.652;2022-10-17T09:38:43;15.40;99.90
3752;DHT22;50827;47.014;7.652;2022-10-17T09:41:22;15.40;99.90
3752;DHT22;50827;47.014;7.652;2022-10-17T09:44:19;15.50;99.90
3752;DHT22;50827;47.014;7.652;2022-10-17T09:49:46;15.70;99.90
3752;DHT22;50827;47.014;7.652;2022-10-17T09:52:21;15.70;99.90
3752;DHT22;50827;47.014;7.652;2022-10-17T09:55:04;15.80;99.90
3752;DHT22;50827;47.014;7.652;2022-10-17T09:57:52;15.80;99.90
3752;DHT22;50827;47.014;7.652;2022-10-17T10:00:39;15.90;99.90
3752;DHT22;50827;47.014;7.652;2022-10-17T10:05:36;16.00;99.90
3752;DHT22;50827;47.014;7.652;2022-10-17T10:08:15;16.10;99.90
3752;DHT22;50827;47.014;7.652;2022-10-17T10:10:43;16.20;99.90
3752;DHT22;50827;47.014;7.652;2022-10-17T10:15:44;16.30;99.90
3752;DHT22;50827;47.014;7.652;2022-10-17T10:18:32;16.40;99.90
3752;DHT22;50827;47.014;7.652;2022-10-17T10:21:14;16.50;99.90
3752;DHT22;50827;47.014;7.652;2022-10-17T10:23:43;16.50;99.90
3752;DHT22;50827;47.014;7.652;2022-10-17T10:26:46;16.60;99.90
3752;DHT22;50827;47.014;7.652;2022-10-17T10:29:34;16.70;99.90
3752;DHT22;50827;47.014;7.652;2022-10-17T10:32:33;16.80;99.90
3752;DHT22;50827;47.014;7.652;2022-10-17T10:35:02;16.90;99.90
3752;DHT22;50827;47.014;7.652;2022-10-17T10:37:42;17.00;99.90
3752;DHT22;50827;47.014;7.652;2022-10-17T10:40:20;17.10;99.90
3752;DHT22;50827;47.014;7.652;2022-10-17T10:42:50;17.10;99.90
3752;DHT22;50827;47.014;7.652;2022-10-17T10:45:22;17.20;99.90
3752;DHT22;50827;47.014;7.652;2022-10-17T10:50:45;17.30;99.90
3752;DHT22;50827;47.014;7.652;2022-10-17T10:53:37;17.50;99.90
3752;DHT22;50827;47.014;7.652;2022-10-17T10:56:28;17.50;99.90
3752;DHT22;50827;47.014;7.652;2022-10-17T10:59:09;17.50;99.90
3752;DHT22;50827;47.014;7.652;2022-10-17T11:01:47;17.60;99.90
3752;DHT22;50827;47.014;7.652;2022-10-17T11:07:19;17.80;99.90
3752;DHT22;50827;47.014;7.652;2022-10-17T11:09:52;17.80;99.90
3752;DHT22;50827;47.014;7.652;2022-10-17T11:12:27;17.90;99.90
3752;DHT22;50827;47.014;7.652;2022-10-17T11:20:41;18.00;99.90
3752;DHT22;50827;47.014;7.652;2022-10-17T11:23:17;18.10;99.90
3752;DHT22;50827;47.014;7.652;2022-10-17T11:25:51;18.10;99.90
3752;DHT22;50827;47.014;7.652;2022-10-17T11:28:20;18.20;99.90
3752;DHT22;50827;47.014;7.652;2022-10-17T11:33:19;18.30;99.90
3752;DHT22;50827;47.014;7.652;2022-10-17T11:35:49;18.30;99.90
3752;DHT22;50827;47.014;7.652;2022-10-17T11:38:41;18.40;99.90
3752;DHT22;50827;47.014;7.652;2022-10-17T11:41:30;18.50;99.90
3752;DHT22;50827;47.014;7.652;2022-10-17T11:44:36;18.50;99.90
3752;DHT22;50827;47.014;7.652;2022-10-17T11:47:43;18.50;99.90
3752;DHT22;50827;47.014;7.652;2022-10-17T11:50:15;18.60;99.90
3752;DHT22;50827;47.014;7.652;2022-10-17T11:53:12;18.60;99.90
3752;DHT22;50827;47.014;7.652;2022-10-17T11:55:40;18.70;99.90
3752;DHT22;50827;47.014;7.652;2022-10-17T11:58:29;18.70;99.90
3752;DHT22;50827;47.014;7.652;2022-10-17T12:04:10;18.80;99.90
3752;DHT22;50827;47.014;7.652;2022-10-17T12:11:56;18.90;99.90
3752;DHT22;50827;47.014;7.652;2022-10-17T12:17:00;18.90;99.90
3752;DHT22;50827;47.014;7.652;2022-10-17T12:19:32;19.00;99.90
3752;DHT22;50827;47.014;7.652;2022-10-17T12:22:18;19.00;99.90
3752;DHT22;50827;47.014;7.652;2022-10-17T12:25:02;19.10;99.90
3752;DHT22;50827;47.014;7.652;2022-10-17T12:27:43;19.10;99.90
3752;DHT22;50827;47.014;7.652;2022-10-17T12:33:02;19.20;99.90
3752;DHT22;50827;47.014;7.652;2022-10-17T12:35:34;19.20;99.90
3752;DHT22;50827;47.014;7.652;2022-10-17T12:45:52;19.40;99.90
3752;DHT22;50827;47.014;7.652;2022-10-17T12:51:17;19.50;99.90
3752;DHT22;50827;47.014;7.652;2022-10-17T12:54:10;19.50;99.90
3752;DHT22;50827;47.014;7.652;2022-10-17T12:56:43;19.50;99.90
3752;DHT22;50827;47.014;7.652;2022-10-17T12:59:19;19.60;99.90
3752;DHT22;50827;47.014;7.652;2022-10-17T13:01:48;19.60;99.90
3752;DHT22;50827;47.014;7.652;2022-10-17T13:04:17;19.60;99.90
3752;DHT22;50827;47.014;7.652;2022-10-17T13:06:50;19.70;99.90
3752;DHT22;50827;47.014;7.652;2022-10-17T13:09:31;19.70;99.90
3752;DHT22;50827;47.014;7.652;2022-10-17T13:12:02;19.70;99.90
3752;DHT22;50827;47.014;7.652;2022-10-17T13:14:31;19.70;99.90
3752;DHT22;50827;47.014;7.652;2022-10-17T13:17:00;19.70;99.90
3752;DHT22;50827;47.014;7.652;2022-10-17T13:19:39;19.80;99.90
3752;DHT22;50827;47.014;7.652;2022-10-17T13:22:21;19.80;99.90
3752;DHT22;50827;47.014;7.652;2022-10-17T13:24:50;19.80;99.90
3752;DHT22;50827;47.014;7.652;2022-10-17T13:27:29;19.90;99.90
3752;DHT22;50827;47.014;7.652;2022-10-17T13:29:58;19.90;99.90
3752;DHT22;50827;47.014;7.652;2022-10-17T13:32:35;19.90;99.90
3752;DHT22;50827;47.014;7.652;2022-10-17T13:35:11;19.90;99.90
3752;DHT22;50827;47.014;7.652;2022-10-17T13:37:43;19.90;99.90
3752;DHT22;50827;47.014;7.652;2022-10-17T13:40:21;20.00;99.90
3752;DHT22;50827;47.014;7.652;2022-10-17T13:43:20;20.00;99.90
3752;DHT22;50827;47.014;7.652;2022-10-17T13:45:55;20.00;99.90
3752;DHT22;50827;47.014;7.652;2022-10-17T13:48:36;20.10;99.90
3752;DHT22;50827;47.014;7.652;2022-10-17T13:51:04;20.00;99.90
3752;DHT22;50827;47.014;7.652;2022-10-17T13:53:39;20.10;99.90
3752;DHT22;50827;47.014;7.652;2022-10-17T13:56:25;20.10;99.90
3752;DHT22;50827;47.014;7.652;2022-10-17T13:59:01;20.10;99.90
3752;DHT22;50827;47.014;7.652;2022-10-17T14:01:30;20.10;99.90
3752;DHT22;50827;47.014;7.652;2022-10-17T14:03:57;20.10;99.90
3752;DHT22;50827;47.014;7.652;2022-10-17T14:06:46;20.10;99.90
3752;DHT22;50827;47.014;7.652;2022-10-17T14:09:24;20.10;99.90
3752;DHT22;50827;47.014;7.652;2022-10-17T14:12:01;20.10;99.90
3752;DHT22;50827;47.014;7.652;2022-10-17T14:14:28;20.20;99.90
3752;DHT22;50827;47.014;7.652;2022-10-17T14:17:14;20.20;99.90
3752;DHT22;50827;47.014;7.652;2022-10-17T14:19:52;20.30;99.90
3752;DHT22;50827;47.014;7.652;2022-10-17T14:22:39;20.30;99.90
3752;DHT22;50827;47.014;7.652;2022-10-17T14:25:29;20.30;99.90
3752;DHT22;50827;47.014;7.652;2022-10-17T14:30:47;20.20;99.90
3752;DHT22;50827;47.014;7.652;2022-10-17T14:33:28;20.30;99.90
3752;DHT22;50827;47.014;7.652;2022-10-17T14:35:57;20.30;99.90
3752;DHT22;50827;47.014;7.652;2022-10-17T14:38:27;20.30;99.90
3752;DHT22;50827;47.014;7.652;2022-10-17T14:41:12;20.40;99.90
3752;DHT22;50827;47.014;7.652;2022-10-17T14:44:13;20.40;99.90
3752;DHT22;50827;47.014;7.652;2022-10-17T14:46:44;20.30;99.90
3752;DHT22;50827;47.014;7.652;2022-10-17T14:49:22;20.30;99.90
3752;DHT22;50827;47.014;7.652;2022-10-17T14:52:27;20.30;99.90
3752;DHT22;50827;47.014;7.652;2022-10-17T14:54:55;20.30;99.90
3752;DHT22;50827;47.014;7.652;2022-10-17T14:57:38;20.30;99.90
3752;DHT22;50827;47.014;7.652;2022-10-17T15:00:06;20.30;99.90
3752;DHT22;50827;47.014;7.652;2022-10-17T15:02:33;20.30;99.90
3752;DHT22;50827;47.014;7.652;2022-10-17T15:05:00;20.30;99.90
3752;DHT22;50827;47.014;7.652;2022-10-17T15:07:26;20.30;99.90
3752;DHT22;50827;47.014;7.652;2022-10-17T15:09:54;20.20;99.90
3752;DHT22;50827;47.014;7.652;2022-10-17T15:12:23;20.30;99.90
3752;DHT22;50827;47.014;7.652;2022-10-17T15:14:51;20.20;99.90
3752;DHT22;50827;47.014;7.652;2022-10-17T15:17:29;20.20;99.90
3752;DHT22;50827;47.014;7.652;2022-10-17T15:19:58;20.20;99.90
3752;DHT22;50827;47.014;7.652;2022-10-17T15:22:25;20.20;99.90
3752;DHT22;50827;47.014;7.652;2022-10-17T15:24:52;20.10;99.90
3752;DHT22;50827;47.014;7.652;2022-10-17T15:27:21;20.00;99.90
3752;DHT22;50827;47.014;7.652;2022-10-17T15:29:48;20.00;99.90
3752;DHT22;50827;47.014;7.652;2022-10-17T15:32:15;20.00;99.90
3752;DHT22;50827;47.014;7.652;2022-10-17T15:34:42;19.80;99.90
3752;DHT22;50827;47.014;7.652;2022-10-17T15:37:21;19.80;99.90
3752;DHT22;50827;47.014;7.652;2022-10-17T15:39:53;19.80;99.90
3752;DHT22;50827;47.014;7.652;2022-10-17T15:42:25;19.70;99.90
3752;DHT22;50827;47.014;7.652;2022-10-17T15:44:52;19.70;99.90
3752;DHT22;50827;47.014;7.652;2022-10-17T15:47:30;19.60;99.90
3752;DHT22;50827;47.014;7.652;2022-10-17T15:50:00;19.60;99.90
3752;DHT22;50827;47.014;7.652;2022-10-17T15:52:27;19.60;99.90
3752;DHT22;50827;47.014;7.652;2022-10-17T15:54:54;19.60;99.90
3752;DHT22;50827;47.014;7.652;2022-10-17T15:57:27;19.40;99.90
3752;DHT22;50827;47.014;7.652;2022-10-17T15:59:57;19.30;99.90
3752;DHT22;50827;47.014;7.652;2022-10-17T16:02:24;19.30;99.90
3752;DHT22;50827;47.014;7.652;2022-10-17T16:04:51;19.20;99.90
3752;DHT22;50827;47.014;7.652;2022-10-17T16:07:19;19.20;99.90
3752;DHT22;50827;47.014;7.652;2022-10-17T16:09:46;19.20;99.90
3752;DHT22;50827;47.014;7.652;2022-10-17T16:12:24;19.20;99.90
3752;DHT22;50827;47.014;7.652;2022-10-17T16:14:53;19.20;99.90
3752;DHT22;50827;47.014;7.652;2022-10-17T16:17:19;19.10;99.90
3752;DHT22;50827;47.014;7.652;2022-10-17T16:19:46;19.10;99.90
3752;DHT22;50827;47.014;7.652;2022-10-17T16:22:23;19.10;99.90
3752;DHT22;50827;47.014;7.652;2022-10-17T16:24:52;19.10;99.90
3752;DHT22;50827;47.014;7.652;2022-10-17T16:27:24;19.00;99.90
3752;DHT22;50827;47.014;7.652;2022-10-17T16:29:51;18.90;99.90
3752;DHT22;50827;47.014;7.652;2022-10-17T16:32:18;18.80;99.90
3752;DHT22;50827;47.014;7.652;2022-10-17T16:34:44;18.80;99.90
3752;DHT22;50827;47.014;7.652;2022-10-17T16:37:11;18.70;99.90
3752;DHT22;50827;47.014;7.652;2022-10-17T16:39:37;18.60;99.90
3752;DHT22;50827;47.014;7.652;2022-10-17T16:42:04;18.60;99.90
3752;DHT22;50827;47.014;7.652;2022-10-17T16:44:31;18.50;99.90
3752;DHT22;50827;47.014;7.652;2022-10-17T16:46:57;18.40;99.90
3752;DHT22;50827;47.014;7.652;2022-10-17T16:49:24;18.30;99.90
3752;DHT22;50827;47.014;7.652;2022-10-17T16:51:50;18.20;99.90
3752;DHT22;50827;47.014;7.652;2022-10-17T16:54:17;18.10;99.90
3752;DHT22;50827;47.014;7.652;2022-10-17T16:56:44;18.10;99.90
3752;DHT22;50827;47.014;7.652;2022-10-17T16:59:10;18.10;99.90
3752;DHT22;50827;47.014;7.652;2022-10-17T17:01:38;18.10;99.90
3752;DHT22;50827;47.014;7.652;2022-10-17T17:04:04;18.10;99.90
3752;DHT22;50827;47.014;7.652;2022-10-17T17:06:31;18.10;99.90
3752;DHT22;50827;47.014;7.652;2022-10-17T17:08:58;18.00;99.90
3752;DHT22;50827;47.014;7.652;2022-10-17T17:11:26;18.00;99.90
3752;DHT22;50827;47.014;7.652;2022-10-17T17:13:57;18.00;99.90
3752;DHT22;50827;47.014;7.652;2022-10-17T17:16:25;18.00;99.90
3752;DHT22;50827;47.014;7.652;2022-10-17T17:18:57;17.90;99.90
3752;DHT22;50827;47.014;7.652;2022-10-17T17:21:25;17.80;99.90
3752;DHT22;50827;47.014;7.652;2022-10-17T17:23:53;17.80;99.90
3752;DHT22;50827;47.014;7.652;2022-10-17T17:26:24;17.80;99.90
3752;DHT22;50827;47.014;7.652;2022-10-17T17:28:51;17.80;99.90
3752;DHT22;50827;47.014;7.652;2022-10-17T17:31:27;17.70;99.90
3752;DHT22;50827;47.014;7.652;2022-10-17T17:33:54;17.60;99.90
3752;DHT22;50827;47.014;7.652;2022-10-17T17:36:31;17.60;99.90
3752;DHT22;50827;47.014;7.652;2022-10-17T17:39:00;17.50;99.90
3752;DHT22;50827;47.014;7.652;2022-10-17T17:41:27;17.50;99.90
3752;DHT22;50827;47.014;7.652;2022-10-17T17:43:54;17.50;99.90
3752;DHT22;50827;47.014;7.652;2022-10-17T17:46:22;17.40;99.90
3752;DHT22;50827;47.014;7.652;2022-10-17T17:48:50;17.40;99.90
3752;DHT22;50827;47.014;7.652;2022-10-17T17:51:19;17.30;99.90
3752;DHT22;50827;47.014;7.652;2022-10-17T17:53:48;17.30;99.90
3752;DHT22;50827;47.014;7.652;2022-10-17T17:56:24;17.30;99.90
3752;DHT22;50827;47.014;7.652;2022-10-17T17:58:59;17.20;99.90
3752;DHT22;50827;47.014;7.652;2022-10-17T18:01:28;17.10;99.90
3752;DHT22;50827;47.014;7.652;2022-10-17T18:03:56;17.00;99.90
3752;DHT22;50827;47.014;7.652;2022-10-17T18:06:25;17.00;99.90
3752;DHT22;50827;47.014;7.652;2022-10-17T18:08:55;16.90;99.90
3752;DHT22;50827;47.014;7.652;2022-10-17T18:11:23;16.90;99.90
3752;DHT22;50827;47.014;7.652;2022-10-17T18:13:58;16.80;99.90
3752;DHT22;50827;47.014;7.652;2022-10-17T18:16:26;16.80;99.90
3752;DHT22;50827;47.014;7.652;2022-10-17T18:18:53;16.70;99.90
3752;DHT22;50827;47.014;7.652;2022-10-17T18:21:20;16.70;99.90
3752;DHT22;50827;47.014;7.652;2022-10-17T18:23:48;16.70;99.90
3752;DHT22;50827;47.014;7.652;2022-10-17T18:26:15;16.60;99.90
3752;DHT22;50827;47.014;7.652;2022-10-17T18:28:43;16.50;99.90
3752;DHT22;50827;47.014;7.652;2022-10-17T18:31:15;16.50;99.90
3752;DHT22;50827;47.014;7.652;2022-10-17T18:33:45;16.40;99.90
3752;DHT22;50827;47.014;7.652;2022-10-17T18:36:13;16.50;99.90
3752;DHT22;50827;47.014;7.652;2022-10-17T18:38:40;16.50;99.90
3752;DHT22;50827;47.014;7.652;2022-10-17T18:41:13;16.50;99.90
3752;DHT22;50827;47.014;7.652;2022-10-17T18:43:42;16.40;99.90
3752;DHT22;50827;47.014;7.652;2022-10-17T18:46:16;16.40;99.90
3752;DHT22;50827;47.014;7.652;2022-10-17T18:48:44;16.40;99.90
3752;DHT22;50827;47.014;7.652;2022-10-17T18:51:12;16.30;99.90
3752;DHT22;50827;47.014;7.652;2022-10-17T18:53:40;16.30;99.90
3752;DHT22;50827;47.014;7.652;2022-10-17T18:56:07;16.30;99.90